sensor_id;sensor_type;location;lat;lon;timestamp;temperature;humidity
52245;DHT22;55759;51.586;-1.758;2024-03-22T00:01:26;9.10;82.50
52245;DHT22;55759;51.586;-1.758;2024-03-22T00:03:51;9.10;82.30
52245;DHT22;55759;51.586;-1.758;2024-03-22T00:06:17;9.20;82.10
52245;DHT22;55759;51.586;-1.758;2024-03-22T00:08:42;9.20;82.10
52245;DHT22;55759;51.586;-1.758;2024-03-22T00:11:08;9.30;81.20
52245;DHT22;55759;51.586;-1.758;2024-03-22T00:13:34;9.40;81.50
52245;DHT22;55759;51.586;-1.758;2024-03-22T00:15:59;9.50;80.90
52245;DHT22;55759;51.586;-1.758;2024-03-22T00:18:25;9.50;80.80
52245;DHT22;55759;51.586;-1.758;2024-03-22T00:20:50;9.60;81.00
52245;DHT22;55759;51.586;-1.758;2024-03-22T00:23:16;9.60;80.60
52245;DHT22;55759;51.586;-1.758;2024-03-22T00:25:41;9.60;80.40
52245;DHT22;55759;51.586;-1.758;2024-03-22T00:28:07;9.60;80.00
52245;DHT22;55759;51.586;-1.758;2024-03-22T00:30:33;9.70;80.30
52245;DHT22;55759;51.586;-1.758;2024-03-22T00:32:58;9.70;80.20
52245;DHT22;55759;51.586;-1.758;2024-03-22T00:35:24;9.70;80.20
52245;DHT22;55759;51.586;-1.758;2024-03-22T00:37:49;9.70;80.20
52245;DHT22;55759;51.586;-1.758;2024-03-22T00:40:15;9.80;80.10
52245;DHT22;55759;51.586;-1.758;2024-03-22T00:42:40;9.80;80.20
52245;DHT22;55759;51.586;-1.758;2024-03-22T00:45:06;9.90;80.40
52245;DHT22;55759;51.586;-1.758;2024-03-22T00:47:31;9.80;80.20
52245;DHT22;55759;51.586;-1.758;2024-03-22T00:49:57;9.90;80.00
52245;DHT22;55759;51.586;-1.758;2024-03-22T00:52:23;9.90;79.70
52245;DHT22;55759;51.586;-1.758;2024-03-22T00:54:50;9.90;79.50
52245;DHT22;55759;51.586;-1.758;2024-03-22T00:57:15;9.90;79.00
52245;DHT22;55759;51.586;-1.758;2024-03-22T00:59:43;9.90;79.20
52245;DHT22;55759;51.586;-1.758;2024-03-22T01:02:09;9.90;78.70
52245;DHT22;55759;51.586;-1.758;2024-03-22T01:04:35;9.90;78.90
52245;DHT22;55759;51.586;-1.758;2024-03-22T01:07:00;9.90;79.10
52245;DHT22;55759;51.586;-1.758;2024-03-22T01:09:26;9.90;78.70
52245;DHT22;55759;51.586;-1.758;2024-03-22T01:11:51;9.80;78.90
52245;DHT22;55759;51.586;-1.758;2024-03-22T01:14:17;9.80;78.90
52245;DHT22;55759;51.586;-1.758;2024-03-22T01:16:43;9.70;79.50
52245;DHT22;55759;51.586;-1.758;2024-03-22T01:19:08;9.70;79.30
52245;DHT22;55759;51.586;-1.758;2024-03-22T01:21:34;9.70;79.40
52245;DHT22;55759;51.586;-1.758;2024-03-22T01:24:01;9.70;79.60
52245;DHT22;55759;51.586;-1.758;2024-03-22T01:26:26;9.70;79.50
52245;DHT22;55759;51.586;-1.758;2024-03-22T01:28:52;9.70;79.30
52245;DHT22;55759;51.586;-1.758;2024-03-22T01:31:17;9.80;79.70
52245;DHT22;55759;51.586;-1.758;2024-03-22T01:33:43;9.70;79.70
52245;DHT22;55759;51.586;-1.758;2024-03-22T01:36:08;9.80;79.70
52245;DHT22;55759;51.586;-1.758;2024-03-22T01:38:34;9.80;79.30
52245;DHT22;55759;51.586;-1.758;2024-03-22T01:40:59;9.80;79.50
52245;DHT22;55759;51.586;-1.758;2024-03-22T01:43:25;9.80;79.70
52245;DHT22;55759;51.586;-1.758;2024-03-22T01:45:51;9.80;79.30
52245;DHT22;55759;51.586;-1.758;2024-03-22T01:48:16;9.80;79.60
52245;DHT22;55759;51.586;-1.758;2024-03-22T01:50:42;9.80;79.80
52245;DHT22;55759;51.586;-1.758;2024-03-22T01:53:08;9.80;79.40
52245;DHT22;55759;51.586;-1.758;2024-03-22T01:55:34;9.80;79.50
52245;DHT22;55759;51.586;-1.758;2024-03-22T01:58:00;9.90;79.70
52245;DHT22;55759;51.586;-1.758;2024-03-22T02:00:25;9.90;80.00
52245;DHT22;55759;51.586;-1.758;2024-03-22T02:02:51;9.90;80.40
52245;DHT22;55759;51.586;-1.758;2024-03-22T02:05:19;9.90;80.80
52245;DHT22;55759;51.586;-1.758;2024-03-22T02:07:45;9.80;80.80
52245;DHT22;55759;51.586;-1.758;2024-03-22T02:10:11;9.90;81.00
52245;DHT22;55759;51.586;-1.758;2024-03-22T02:12:38;9.90;80.80
52245;DHT22;55759;51.586;-1.758;2024-03-22T02:15:03;9.90;81.00
52245;DHT22;55759;51.586;-1.758;2024-03-22T02:17:29;9.90;81.00
52245;DHT22;55759;51.586;-1.758;2024-03-22T02:19:55;9.90;81.00
52245;DHT22;55759;51.586;-1.758;2024-03-22T02:22:20;9.90;81.20
52245;DHT22;55759;51.586;-1.758;2024-03-22T02:24:46;9.90;81.30
52245;DHT22;55759;51.586;-1.758;2024-03-22T02:27:11;9.90;81.30
52245;DHT22;55759;51.586;-1.758;2024-03-22T02:29:37;9.90;81.50
52245;DHT22;55759;51.586;-1.758;2024-03-22T02:32:02;9.90;81.90
52245;DHT22;55759;51.586;-1.758;2024-03-22T02:34:29;9.90;81.90
52245;DHT22;55759;51.586;-1.758;2024-03-22T02:36:54;9.90;81.60
52245;DHT22;55759;51.586;-1.758;2024-03-22T02:39:20;9.90;81.60
52245;DHT22;55759;51.586;-1.758;2024-03-22T02:41:45;9.90;82.00
52245;DHT22;55759;51.586;-1.758;2024-03-22T02:44:11;10.00;82.00
52245;DHT22;55759;51.586;-1.758;2024-03-22T02:46:37;10.00;81.90
52245;DHT22;55759;51.586;-1.758;2024-03-22T02:49:02;10.00;81.90
52245;DHT22;55759;51.586;-1.758;2024-03-22T02:51:28;10.00;82.10
52245;DHT22;55759;51.586;-1.758;2024-03-22T02:53:53;10.00;82.60
52245;DHT22;55759;51.586;-1.758;2024-03-22T02:56:19;10.00;82.80
52245;DHT22;55759;51.586;-1.758;2024-03-22T02:58:44;10.10;83.10
52245;DHT22;55759;51.586;-1.758;2024-03-22T03:01:10;10.10;82.90
52245;DHT22;55759;51.586;-1.758;2024-03-22T03:03:36;10.10;82.70
52245;DHT22;55759;51.586;-1.758;2024-03-22T03:06:01;10.10;82.90
52245;DHT22;55759;51.586;-1.758;2024-03-22T03:08:27;10.10;83.00
52245;DHT22;55759;51.586;-1.758;2024-03-22T03:10:52;10.10;83.20
52245;DHT22;55759;51.586;-1.758;2024-03-22T03:13:18;10.10;83.10
52245;DHT22;55759;51.586;-1.758;2024-03-22T03:15:43;10.10;83.10
52245;DHT22;55759;51.586;-1.758;2024-03-22T03:18:09;10.10;83.30
52245;DHT22;55759;51.586;-1.758;2024-03-22T03:20:34;10.10;83.70
52245;DHT22;55759;51.586;-1.758;2024-03-22T03:23:00;10.10;83.80
52245;DHT22;55759;51.586;-1.758;2024-03-22T03:25:27;10.10;83.70
52245;DHT22;55759;51.586;-1.758;2024-03-22T03:27:52;10.10;83.80
52245;DHT22;55759;51.586;-1.758;2024-03-22T03:30:18;10.10;83.90
52245;DHT22;55759;51.586;-1.758;2024-03-22T03:32:44;10.10;83.70
52245;DHT22;55759;51.586;-1.758;2024-03-22T03:35:09;10.10;83.60
52245;DHT22;55759;51.586;-1.758;2024-03-22T03:37:35;10.10;83.80
52245;DHT22;55759;51.586;-1.758;2024-03-22T03:40:01;10.10;84.20
52245;DHT22;55759;51.586;-1.758;2024-03-22T03:42:26;10.10;84.30
52245;DHT22;55759;51.586;-1.758;2024-03-22T03:44:52;10.10;84.30
52245;DHT22;55759;51.586;-1.758;2024-03-22T03:47:17;10.10;84.40
52245;DHT22;55759;51.586;-1.758;2024-03-22T03:49:45;10.10;84.50
52245;DHT22;55759;51.586;-1.758;2024-03-22T03:52:10;10.20;84.60
52245;DHT22;55759;51.586;-1.758;2024-03-22T03:54:36;10.20;84.70
52245;DHT22;55759;51.586;-1.758;2024-03-22T03:57:01;10.20;84.60
52245;DHT22;55759;51.586;-1.758;2024-03-22T03:59:27;10.20;84.90
52245;DHT22;55759;51.586;-1.758;2024-03-22T04:01:52;10.20;84.80
52245;DHT22;55759;51.586;-1.758;2024-03-22T04:04:18;10.20;84.90
52245;DHT22;55759;51.586;-1.758;2024-03-22T04:06:44;10.20;85.00
52245;DHT22;55759;51.586;-1.758;2024-03-22T04:09:09;10.20;85.10
52245;DHT22;55759;51.586;-1.758;2024-03-22T04:11:35;10.20;85.30
52245;DHT22;55759;51.586;-1.758;2024-03-22T04:14:00;10.20;85.50
52245;DHT22;55759;51.586;-1.758;2024-03-22T04:16:26;10.30;85.60
52245;DHT22;55759;51.586;-1.758;2024-03-22T04:18:52;10.30;85.80
52245;DHT22;55759;51.586;-1.758;2024-03-22T04:21:18;10.30;85.90
52245;DHT22;55759;51.586;-1.758;2024-03-22T04:23:44;10.30;85.90
52245;DHT22;55759;51.586;-1.758;2024-03-22T04:26:10;10.30;85.90
52245;DHT22;55759;51.586;-1.758;2024-03-22T04:28:35;10.40;86.00
52245;DHT22;55759;51.586;-1.758;2024-03-22T04:31:02;10.30;86.10
52245;DHT22;55759;51.586;-1.758;2024-03-22T04:33:28;10.30;86.30
52245;DHT22;55759;51.586;-1.758;2024-03-22T04:35:54;10.30;86.40
52245;DHT22;55759;51.586;-1.758;2024-03-22T04:38:19;10.30;86.60
52245;DHT22;55759;51.586;-1.758;2024-03-22T04:40:45;10.30;86.80
52245;DHT22;55759;51.586;-1.758;2024-03-22T04:43:10;10.30;86.90
52245;DHT22;55759;51.586;-1.758;2024-03-22T04:45:36;10.30;87.00
52245;DHT22;55759;51.586;-1.758;2024-03-22T04:48:02;10.30;87.20
52245;DHT22;55759;51.586;-1.758;2024-03-22T04:50:28;10.30;87.30
52245;DHT22;55759;51.586;-1.758;2024-03-22T04:52:54;10.30;87.40
52245;DHT22;55759;51.586;-1.758;2024-03-22T04:55:20;10.30;87.70
52245;DHT22;55759;51.586;-1.758;2024-03-22T04:57:45;10.20;87.70
52245;DHT22;55759;51.586;-1.758;2024-03-22T05:00:11;10.20;87.90
52245;DHT22;55759;51.586;-1.758;2024-03-22T05:02:37;10.20;88.10
52245;DHT22;55759;51.586;-1.758;2024-03-22T05:05:02;10.20;88.20
52245;DHT22;55759;51.586;-1.758;2024-03-22T05:07:28;10.10;88.50
52245;DHT22;55759;51.586;-1.758;2024-03-22T05:09:54;10.20;88.70
52245;DHT22;55759;51.586;-1.758;2024-03-22T05:12:19;10.10;88.80
52245;DHT22;55759;51.586;-1.758;2024-03-22T05:14:45;10.10;88.90
52245;DHT22;55759;51.586;-1.758;2024-03-22T05:17:10;10.10;89.00
52245;DHT22;55759;51.586;-1.758;2024-03-22T05:19:36;10.10;89.20
52245;DHT22;55759;51.586;-1.758;2024-03-22T05:22:01;10.20;89.30
52245;DHT22;55759;51.586;-1.758;2024-03-22T05:24:28;10.10;89.30
52245;DHT22;55759;51.586;-1.758;2024-03-22T05:26:53;10.10;89.60
52245;DHT22;55759;51.586;-1.758;2024-03-22T05:29:19;10.10;89.70
52245;DHT22;55759;51.586;-1.758;2024-03-22T05:31:48;10.10;89.70
52245;DHT22;55759;51.586;-1.758;2024-03-22T05:34:14;10.10;89.80
52245;DHT22;55759;51.586;-1.758;2024-03-22T05:36:40;10.10;90.00
52245;DHT22;55759;51.586;-1.758;2024-03-22T05:39:06;10.00;90.00
52245;DHT22;55759;51.586;-1.758;2024-03-22T05:41:31;10.00;90.10
52245;DHT22;55759;51.586;-1.758;2024-03-22T05:43:57;10.00;90.10
52245;DHT22;55759;51.586;-1.758;2024-03-22T05:46:23;9.90;90.10
52245;DHT22;55759;51.586;-1.758;2024-03-22T05:48:48;9.90;90.20
52245;DHT22;55759;51.586;-1.758;2024-03-22T05:51:16;9.90;90.20
52245;DHT22;55759;51.586;-1.758;2024-03-22T05:53:41;9.90;90.10
52245;DHT22;55759;51.586;-1.758;2024-03-22T05:56:07;9.90;90.20
52245;DHT22;55759;51.586;-1.758;2024-03-22T05:58:33;9.90;90.40
52245;DHT22;55759;51.586;-1.758;2024-03-22T06:00:58;9.90;90.40
52245;DHT22;55759;51.586;-1.758;2024-03-22T06:03:24;9.90;90.40
52245;DHT22;55759;51.586;-1.758;2024-03-22T06:05:50;9.90;90.50
52245;DHT22;55759;51.586;-1.758;2024-03-22T06:08:20;9.90;90.60
52245;DHT22;55759;51.586;-1.758;2024-03-22T06:10:46;9.90;90.70
52245;DHT22;55759;51.586;-1.758;2024-03-22T06:13:11;9.90;90.70
52245;DHT22;55759;51.586;-1.758;2024-03-22T06:15:37;9.90;90.70
52245;DHT22;55759;51.586;-1.758;2024-03-22T06:18:03;9.90;90.70
52245;DHT22;55759;51.586;-1.758;2024-03-22T06:20:28;9.90;90.80
52245;DHT22;55759;51.586;-1.758;2024-03-22T06:22:55;9.90;90.80
52245;DHT22;55759;51.586;-1.758;2024-03-22T06:25:21;10.00;90.90
52245;DHT22;55759;51.586;-1.758;2024-03-22T06:27:48;10.00;90.90
52245;DHT22;55759;51.586;-1.758;2024-03-22T06:30:14;10.00;90.90
52245;DHT22;55759;51.586;-1.758;2024-03-22T06:32:40;10.00;91.00
52245;DHT22;55759;51.586;-1.758;2024-03-22T06:35:06;10.00;91.00
52245;DHT22;55759;51.586;-1.758;2024-03-22T06:37:38;10.00;91.00
52245;DHT22;55759;51.586;-1.758;2024-03-22T06:40:04;10.10;91.00
52245;DHT22;55759;51.586;-1.758;2024-03-22T06:42:30;10.10;91.00
52245;DHT22;55759;51.586;-1.758;2024-03-22T06:44:56;10.10;91.00
52245;DHT22;55759;51.586;-1.758;2024-03-22T06:47:21;10.10;91.00
52245;DHT22;55759;51.586;-1.758;2024-03-22T06:49:48;10.10;91.00
52245;DHT22;55759;51.586;-1.758;2024-03-22T06:52:14;10.10;91.00
52245;DHT22;55759;51.586;-1.758;2024-03-22T06:54:40;10.20;91.10
52245;DHT22;55759;51.586;-1.758;2024-03-22T06:57:06;10.20;91.10
52245;DHT22;55759;51.586;-1.758;2024-03-22T06:59:31;10.30;91.10
52245;DHT22;55759;51.586;-1.758;2024-03-22T07:01:57;10.30;91.20
52245;DHT22;55759;51.586;-1.758;2024-03-22T07:04:22;10.40;91.10
52245;DHT22;55759;51.586;-1.758;2024-03-22T07:06:48;10.40;91.10
52245;DHT22;55759;51.586;-1.758;2024-03-22T07:09:14;10.40;91.10
52245;DHT22;55759;51.586;-1.758;2024-03-22T07:11:39;10.50;91.00
52245;DHT22;55759;51.586;-1.758;2024-03-22T07:14:08;10.50;91.00
52245;DHT22;55759;51.586;-1.758;2024-03-22T07:16:40;10.50;91.10
52245;DHT22;55759;51.586;-1.758;2024-03-22T07:19:11;10.50;91.10
52245;DHT22;55759;51.586;-1.758;2024-03-22T07:21:37;10.40;90.50
52245;DHT22;55759;51.586;-1.758;2024-03-22T07:24:12;10.20;90.00
52245;DHT22;55759;51.586;-1.758;2024-03-22T07:26:39;10.10;90.00
52245;DHT22;55759;51.586;-1.758;2024-03-22T07:29:06;10.10;90.00
52245;DHT22;55759;51.586;-1.758;2024-03-22T07:31:32;10.10;89.90
52245;DHT22;55759;51.586;-1.758;2024-03-22T07:33:57;10.10;90.00
52245;DHT22;55759;51.586;-1.758;2024-03-22T07:36:23;10.20;90.20
52245;DHT22;55759;51.586;-1.758;2024-03-22T07:38:48;10.20;90.10
52245;DHT22;55759;51.586;-1.758;2024-03-22T07:41:17;10.20;89.90
52245;DHT22;55759;51.586;-1.758;2024-03-22T07:43:42;10.20;89.60
52245;DHT22;55759;51.586;-1.758;2024-03-22T07:46:08;10.20;89.50
52245;DHT22;55759;51.586;-1.758;2024-03-22T07:48:34;10.20;89.30
52245;DHT22;55759;51.586;-1.758;2024-03-22T07:51:00;10.20;89.30
52245;DHT22;55759;51.586;-1.758;2024-03-22T07:53:26;10.20;89.10
52245;DHT22;55759;51.586;-1.758;2024-03-22T07:55:51;10.30;89.00
52245;DHT22;55759;51.586;-1.758;2024-03-22T07:58:17;10.30;89.10
52245;DHT22;55759;51.586;-1.758;2024-03-22T08:00:42;10.40;89.40
52245;DHT22;55759;51.586;-1.758;2024-03-22T08:03:09;10.50;89.30
52245;DHT22;55759;51.586;-1.758;2024-03-22T08:05:46;10.60;88.80
52245;DHT22;55759;51.586;-1.758;2024-03-22T08:08:17;10.50;88.60
52245;DHT22;55759;51.586;-1.758;2024-03-22T08:10:44;10.60;88.80
52245;DHT22;55759;51.586;-1.758;2024-03-22T08:13:10;10.60;88.50
52245;DHT22;55759;51.586;-1.758;2024-03-22T08:15:36;10.60;88.20
52245;DHT22;55759;51.586;-1.758;2024-03-22T08:18:02;10.60;87.80
52245;DHT22;55759;51.586;-1.758;2024-03-22T08:20:30;10.60;87.40
52245;DHT22;55759;51.586;-1.758;2024-03-22T08:22:59;10.70;87.10
52245;DHT22;55759;51.586;-1.758;2024-03-22T08:25:24;10.80;87.20
52245;DHT22;55759;51.586;-1.758;2024-03-22T08:27:51;11.00;87.20
52245;DHT22;55759;51.586;-1.758;2024-03-22T08:30:20;11.00;86.30
52245;DHT22;55759;51.586;-1.758;2024-03-22T08:32:46;11.10;85.80
52245;DHT22;55759;51.586;-1.758;2024-03-22T08:35:12;11.10;84.50
52245;DHT22;55759;51.586;-1.758;2024-03-22T08:37:37;11.20;84.10
52245;DHT22;55759;51.586;-1.758;2024-03-22T08:40:03;11.20;83.10
52245;DHT22;55759;51.586;-1.758;2024-03-22T08:42:30;11.20;82.30
52245;DHT22;55759;51.586;-1.758;2024-03-22T08:44:55;11.10;82.20
52245;DHT22;55759;51.586;-1.758;2024-03-22T08:47:21;11.10;82.50
52245;DHT22;55759;51.586;-1.758;2024-03-22T08:49:48;11.10;82.60
52245;DHT22;55759;51.586;-1.758;2024-03-22T08:52:15;11.10;82.70
52245;DHT22;55759;51.586;-1.758;2024-03-22T08:54:40;11.10;82.90
52245;DHT22;55759;51.586;-1.758;2024-03-22T08:57:06;11.10;82.00
52245;DHT22;55759;51.586;-1.758;2024-03-22T08:59:32;11.10;82.30
52245;DHT22;55759;51.586;-1.758;2024-03-22T09:01:57;11.00;82.70
52245;DHT22;55759;51.586;-1.758;2024-03-22T09:04:24;10.90;81.60
52245;DHT22;55759;51.586;-1.758;2024-03-22T09:06:50;10.90;81.70
52245;DHT22;55759;51.586;-1.758;2024-03-22T09:09:22;10.90;81.50
52245;DHT22;55759;51.586;-1.758;2024-03-22T09:11:51;10.90;81.10
52245;DHT22;55759;51.586;-1.758;2024-03-22T09:14:43;11.00;80.90
52245;DHT22;55759;51.586;-1.758;2024-03-22T09:17:15;11.00;79.80
52245;DHT22;55759;51.586;-1.758;2024-03-22T09:19:41;11.10;80.00
52245;DHT22;55759;51.586;-1.758;2024-03-22T09:22:12;11.20;79.90
52245;DHT22;55759;51.586;-1.758;2024-03-22T09:24:39;11.40;80.20
52245;DHT22;55759;51.586;-1.758;2024-03-22T09:27:04;11.50;79.60
52245;DHT22;55759;51.586;-1.758;2024-03-22T09:29:34;11.60;78.40
52245;DHT22;55759;51.586;-1.758;2024-03-22T09:32:15;11.60;78.20
52245;DHT22;55759;51.586;-1.758;2024-03-22T09:34:41;11.70;77.20
52245;DHT22;55759;51.586;-1.758;2024-03-22T09:37:08;11.80;77.10
52245;DHT22;55759;51.586;-1.758;2024-03-22T09:39:34;11.90;77.00
52245;DHT22;55759;51.586;-1.758;2024-03-22T09:41:59;12.00;76.50
52245;DHT22;55759;51.586;-1.758;2024-03-22T09:44:26;12.10;76.00
52245;DHT22;55759;51.586;-1.758;2024-03-22T09:46:52;12.20;76.00
52245;DHT22;55759;51.586;-1.758;2024-03-22T09:49:18;12.30;75.40
52245;DHT22;55759;51.586;-1.758;2024-03-22T10:00:29;12.50;75.10
52245;DHT22;55759;51.586;-1.758;2024-03-22T10:03:01;12.70;73.00
52245;DHT22;55759;51.586;-1.758;2024-03-22T10:05:29;12.80;73.50
52245;DHT22;55759;51.586;-1.758;2024-03-22T10:07:54;13.00;71.60
52245;DHT22;55759;51.586;-1.758;2024-03-22T10:10:20;13.10;72.00
52245;DHT22;55759;51.586;-1.758;2024-03-22T10:12:46;13.20;68.40
52245;DHT22;55759;51.586;-1.758;2024-03-22T10:15:11;13.20;67.40
52245;DHT22;55759;51.586;-1.758;2024-03-22T10:17:38;13.30;67.00
52245;DHT22;55759;51.586;-1.758;2024-03-22T10:20:05;13.40;68.20
52245;DHT22;55759;51.586;-1.758;2024-03-22T10:22:35;13.50;68.10
52245;DHT22;55759;51.586;-1.758;2024-03-22T10:25:00;13.60;66.50
52245;DHT22;55759;51.586;-1.758;2024-03-22T10:27:27;13.60;66.20
52245;DHT22;55759;51.586;-1.758;2024-03-22T10:29:52;13.50;63.80
52245;DHT22;55759;51.586;-1.758;2024-03-22T10:32:18;13.40;63.90
52245;DHT22;55759;51.586;-1.758;2024-03-22T10:34:47;13.30;63.30
52245;DHT22;55759;51.586;-1.758;2024-03-22T10:37:15;13.30;63.90
52245;DHT22;55759;51.586;-1.758;2024-03-22T10:39:43;13.40;64.00
52245;DHT22;55759;51.586;-1.758;2024-03-22T10:42:13;13.40;63.20
52245;DHT22;55759;51.586;-1.758;2024-03-22T10:44:40;13.40;62.20
52245;DHT22;55759;51.586;-1.758;2024-03-22T10:47:06;13.30;61.10
52245;DHT22;55759;51.586;-1.758;2024-03-22T10:49:37;13.30;61.90
52245;DHT22;55759;51.586;-1.758;2024-03-22T10:52:06;13.40;61.70
52245;DHT22;55759;51.586;-1.758;2024-03-22T10:54:54;13.50;60.50
52245;DHT22;55759;51.586;-1.758;2024-03-22T10:57:19;13.60;60.00
52245;DHT22;55759;51.586;-1.758;2024-03-22T11:00:07;13.60;60.40
52245;DHT22;55759;51.586;-1.758;2024-03-22T11:02:35;13.60;60.10
52245;DHT22;55759;51.586;-1.758;2024-03-22T11:05:01;13.60;57.70
52245;DHT22;55759;51.586;-1.758;2024-03-22T11:07:30;13.40;57.10
52245;DHT22;55759;51.586;-1.758;2024-03-22T11:10:02;13.20;57.80
52245;DHT22;55759;51.586;-1.758;2024-03-22T11:12:39;13.10;58.00
52245;DHT22;55759;51.586;-1.758;2024-03-22T11:15:09;13.00;59.00
52245;DHT22;55759;51.586;-1.758;2024-03-22T11:17:36;12.90;58.60
52245;DHT22;55759;51.586;-1.758;2024-03-22T11:20:02;12.80;59.50
52245;DHT22;55759;51.586;-1.758;2024-03-22T11:22:27;12.70;60.00
52245;DHT22;55759;51.586;-1.758;2024-03-22T11:25:00;12.70;59.30
52245;DHT22;55759;51.586;-1.758;2024-03-22T11:27:38;12.70;59.90
52245;DHT22;55759;51.586;-1.758;2024-03-22T11:30:09;12.70;59.50
52245;DHT22;55759;51.586;-1.758;2024-03-22T11:32:35;12.70;59.00
52245;DHT22;55759;51.586;-1.758;2024-03-22T11:38:10;12.70;60.00
52245;DHT22;55759;51.586;-1.758;2024-03-22T11:40:36;12.80;59.90
52245;DHT22;55759;51.586;-1.758;2024-03-22T11:43:02;12.90;60.20
52245;DHT22;55759;51.586;-1.758;2024-03-22T11:45:28;13.00;60.60
52245;DHT22;55759;51.586;-1.758;2024-03-22T11:47:54;13.10;61.70
52245;DHT22;55759;51.586;-1.758;2024-03-22T11:50:19;13.20;60.40
52245;DHT22;55759;51.586;-1.758;2024-03-22T11:52:52;13.10;60.30
52245;DHT22;55759;51.586;-1.758;2024-03-22T11:55:18;13.20;58.90
52245;DHT22;55759;51.586;-1.758;2024-03-22T11:57:50;13.10;58.60
52245;DHT22;55759;51.586;-1.758;2024-03-22T12:00:18;13.10;59.30
52245;DHT22;55759;51.586;-1.758;2024-03-22T12:02:44;13.20;59.30
52245;DHT22;55759;51.586;-1.758;2024-03-22T12:05:09;13.30;59.70
52245;DHT22;55759;51.586;-1.758;2024-03-22T12:07:36;13.40;59.10
52245;DHT22;55759;51.586;-1.758;2024-03-22T12:10:02;13.40;59.70
52245;DHT22;55759;51.586;-1.758;2024-03-22T12:12:28;13.50;59.10
52245;DHT22;55759;51.586;-1.758;2024-03-22T12:14:54;13.60;59.00
52245;DHT22;55759;51.586;-1.758;2024-03-22T12:17:20;13.60;57.40
52245;DHT22;55759;51.586;-1.758;2024-03-22T12:19:46;13.60;57.80
52245;DHT22;55759;51.586;-1.758;2024-03-22T12:22:12;13.60;59.70
52245;DHT22;55759;51.586;-1.758;2024-03-22T12:24:38;13.60;57.80
52245;DHT22;55759;51.586;-1.758;2024-03-22T12:27:03;13.60;57.00
52245;DHT22;55759;51.586;-1.758;2024-03-22T12:29:31;13.60;56.30
52245;DHT22;55759;51.586;-1.758;2024-03-22T12:31:57;13.70;55.90
52245;DHT22;55759;51.586;-1.758;2024-03-22T12:34:22;13.70;55.50
52245;DHT22;55759;51.586;-1.758;2024-03-22T12:36:48;13.80;55.50
52245;DHT22;55759;51.586;-1.758;2024-03-22T12:39:14;13.90;55.10
52245;DHT22;55759;51.586;-1.758;2024-03-22T12:41:39;14.10;55.20
52245;DHT22;55759;51.586;-1.758;2024-03-22T12:44:05;14.20;54.70
52245;DHT22;55759;51.586;-1.758;2024-03-22T12:46:31;14.30;54.60
52245;DHT22;55759;51.586;-1.758;2024-03-22T12:48:56;14.30;55.30
52245;DHT22;55759;51.586;-1.758;2024-03-22T12:51:22;14.40;53.10
52245;DHT22;55759;51.586;-1.758;2024-03-22T12:53:47;14.40;52.50
52245;DHT22;55759;51.586;-1.758;2024-03-22T12:56:13;14.60;52.70
52245;DHT22;55759;51.586;-1.758;2024-03-22T12:58:39;14.80;52.30
52245;DHT22;55759;51.586;-1.758;2024-03-22T13:01:04;15.00;52.80
52245;DHT22;55759;51.586;-1.758;2024-03-22T13:03:31;15.30;52.00
52245;DHT22;55759;51.586;-1.758;2024-03-22T13:05:57;15.60;50.80
52245;DHT22;55759;51.586;-1.758;2024-03-22T13:08:23;15.80;50.10
52245;DHT22;55759;51.586;-1.758;2024-03-22T13:10:48;16.00;46.90
52245;DHT22;55759;51.586;-1.758;2024-03-22T13:13:14;16.10;47.00
52245;DHT22;55759;51.586;-1.758;2024-03-22T13:15:42;16.20;46.20
52245;DHT22;55759;51.586;-1.758;2024-03-22T13:18:08;16.50;47.00
52245;DHT22;55759;51.586;-1.758;2024-03-22T13:20:37;16.60;45.10
52245;DHT22;55759;51.586;-1.758;2024-03-22T13:23:03;16.70;44.80
52245;DHT22;55759;51.586;-1.758;2024-03-22T13:25:31;17.00;45.20
52245;DHT22;55759;51.586;-1.758;2024-03-22T13:27:57;17.10;43.30
52245;DHT22;55759;51.586;-1.758;2024-03-22T13:30:23;17.10;43.20
52245;DHT22;55759;51.586;-1.758;2024-03-22T13:32:48;17.30;43.40
52245;DHT22;55759;51.586;-1.758;2024-03-22T13:35:14;17.70;44.80
52245;DHT22;55759;51.586;-1.758;2024-03-22T13:37:43;18.40;44.70
52245;DHT22;55759;51.586;-1.758;2024-03-22T13:40:08;18.90;42.90
52245;DHT22;55759;51.586;-1.758;2024-03-22T13:42:34;20.30;41.30
52245;DHT22;55759;51.586;-1.758;2024-03-22T13:44:59;22.00;40.70
52245;DHT22;55759;51.586;-1.758;2024-03-22T13:47:26;24.30;36.80
52245;DHT22;55759;51.586;-1.758;2024-03-22T13:49:53;25.40;33.30
52245;DHT22;55759;51.586;-1.758;2024-03-22T13:52:18;24.30;34.30
52245;DHT22;55759;51.586;-1.758;2024-03-22T13:54:48;24.00;32.40
52245;DHT22;55759;51.586;-1.758;2024-03-22T13:57:13;25.30;32.30
52245;DHT22;55759;51.586;-1.758;2024-03-22T13:59:39;25.70;33.00
52245;DHT22;55759;51.586;-1.758;2024-03-22T14:02:05;25.20;30.10
52245;DHT22;55759;51.586;-1.758;2024-03-22T14:04:31;24.30;31.40
52245;DHT22;55759;51.586;-1.758;2024-03-22T14:06:57;23.50;33.40
52245;DHT22;55759;51.586;-1.758;2024-03-22T14:09:23;22.70;33.50
52245;DHT22;55759;51.586;-1.758;2024-03-22T14:11:48;22.00;35.20
52245;DHT22;55759;51.586;-1.758;2024-03-22T14:14:14;21.00;36.90
52245;DHT22;55759;51.586;-1.758;2024-03-22T14:16:40;20.00;36.80
52245;DHT22;55759;51.586;-1.758;2024-03-22T14:19:09;19.40;38.40
52245;DHT22;55759;51.586;-1.758;2024-03-22T14:24:25;20.00;42.10
52245;DHT22;55759;51.586;-1.758;2024-03-22T14:26:50;22.20;37.20
52245;DHT22;55759;51.586;-1.758;2024-03-22T14:29:16;23.20;35.70
52245;DHT22;55759;51.586;-1.758;2024-03-22T14:31:41;23.10;31.40
52245;DHT22;55759;51.586;-1.758;2024-03-22T14:34:08;23.60;37.10
52245;DHT22;55759;51.586;-1.758;2024-03-22T14:36:33;23.30;32.10
52245;DHT22;55759;51.586;-1.758;2024-03-22T14:38:59;22.20;32.20
52245;DHT22;55759;51.586;-1.758;2024-03-22T14:41:25;21.20;34.60
52245;DHT22;55759;51.586;-1.758;2024-03-22T14:43:50;20.20;35.90
52245;DHT22;55759;51.586;-1.758;2024-03-22T14:46:16;19.30;36.40
52245;DHT22;55759;51.586;-1.758;2024-03-22T14:48:43;18.90;36.90
52245;DHT22;55759;51.586;-1.758;2024-03-22T14:51:09;18.90;36.80
52245;DHT22;55759;51.586;-1.758;2024-03-22T14:53:35;18.40;38.90
52245;DHT22;55759;51.586;-1.758;2024-03-22T14:56:02;18.40;41.80
52245;DHT22;55759;51.586;-1.758;2024-03-22T14:58:31;18.00;40.30
52245;DHT22;55759;51.586;-1.758;2024-03-22T15:00:57;17.80;42.10
52245;DHT22;55759;51.586;-1.758;2024-03-22T15:03:23;19.40;38.90
52245;DHT22;55759;51.586;-1.758;2024-03-22T15:05:53;20.30;36.90
52245;DHT22;55759;51.586;-1.758;2024-03-22T15:08:19;20.10;36.00
52245;DHT22;55759;51.586;-1.758;2024-03-22T15:10:45;19.50;36.70
52245;DHT22;55759;51.586;-1.758;2024-03-22T15:13:11;18.80;38.60
52245;DHT22;55759;51.586;-1.758;2024-03-22T15:15:37;18.30;40.40
52245;DHT22;55759;51.586;-1.758;2024-03-22T15:18:03;17.80;39.60
52245;DHT22;55759;51.586;-1.758;2024-03-22T15:20:31;17.40;38.70
52245;DHT22;55759;51.586;-1.758;2024-03-22T15:22:56;17.60;40.90
52245;DHT22;55759;51.586;-1.758;2024-03-22T15:25:22;17.70;39.10
52245;DHT22;55759;51.586;-1.758;2024-03-22T15:27:47;17.50;38.10
52245;DHT22;55759;51.586;-1.758;2024-03-22T15:30:13;17.20;41.50